Portada
METAR-TAF:

METAR-TAF

Aeroports :

Gaylord Regional Airport (Otsego County Airport)

Gaylord, Michigan, Estats Units d'Amèrica

latitud: 45-00-59N, longitud: 084-41-20W, altitud: 404 m

Observació

L'informe es va fer fa 28 minuts, a les 01:53 UTC
Vent calma
Temperatura 23°C
Humitat 78%
Pressió 1015 hPa
Visibilitat: 16.1 km
Escasses núvols a una alçada de 10000 ft

METAR: KGLR 280153Z AUTO 00000KT 10SM FEW100 23/19 A2996 RMK AO2 SLP138 T02280189

Hora: 22:21 (02:21 UTC)


TAF: manca

Observacions i pronòstics meteorològics de més de 4000 aeroports (METAR i TAF).

Les estacions disponibles són els punts grocs i vermells al mapa.

Posi el ratolí al punt desitjat per veure el nom de l'estació.

Feu clic per veure les observacions i els pronòstics meteorològics.

Per canviar el mapa: feu clic els botons verds amb una creu de color negre per apropar; al botó verd amb un guió per allunyar la imatge; o en les fletxes verdes per a mapes adjacents.


METAR-TAF: